createdAt,value
2022-09-11T00:01:12.578Z,100993.97
2022-09-11T00:03:39.237Z,100995.69
2022-09-11T00:06:08.359Z,100994.69
2022-09-11T00:08:35.157Z,100992.88
2022-09-11T00:11:08.416Z,100996.47
2022-09-11T00:13:38.609Z,100993.91
2022-09-11T00:16:07.367Z,100991.16
2022-09-11T00:18:35.951Z,100997.28
2022-09-11T00:21:03.881Z,100999.06
2022-09-11T00:23:30.465Z,101006.25
2022-09-11T00:26:02.376Z,101002.78
2022-09-11T00:28:30.951Z,101005.44
2022-09-11T00:31:07.409Z,101002.75
2022-09-11T00:33:35.416Z,101006.31
2022-09-11T00:36:08.078Z,101010.00
2022-09-11T00:38:36.958Z,101019.84
2022-09-11T00:41:06.531Z,101020.78
2022-09-11T00:43:56.135Z,101023.47
2022-09-11T00:46:32.176Z,101021.63
2022-09-11T00:49:00.271Z,101025.25
2022-09-11T00:51:30.010Z,101031.44
2022-09-11T00:53:58.067Z,101033.22
2022-09-11T00:56:28.586Z,101032.28
2022-09-11T00:58:55.972Z,101038.47
2022-09-11T01:01:22.669Z,101040.25
2022-09-11T01:03:49.416Z,101036.72
2022-09-11T01:06:18.465Z,101040.34
2022-09-11T01:08:45.068Z,101043.00
2022-09-11T01:11:23.984Z,101042.09
2022-09-11T01:14:07.325Z,101041.31
2022-09-11T01:16:49.308Z,101043.06
2022-09-11T01:19:40.401Z,101046.63
2022-09-11T01:22:35.199Z,101051.09
2022-09-11T01:25:09.412Z,101046.66
2022-09-11T01:27:50.966Z,101058.19
2022-09-11T01:30:19.378Z,101053.69
2022-09-11T01:33:00.921Z,101054.66
2022-09-11T01:35:52.884Z,101061.78
2022-09-11T01:38:51.414Z,101063.53
2022-09-11T01:41:27.751Z,101071.56
2022-09-11T01:44:03.840Z,101075.97
2022-09-11T01:46:35.191Z,101076.00
2022-09-11T01:49:13.061Z,101067.91
2022-09-11T01:51:40.666Z,101074.22
2022-09-11T01:54:13.245Z,101074.22
2022-09-11T01:56:44.734Z,101078.69
2022-09-11T01:59:15.096Z,101083.13
2022-09-11T02:01:45.462Z,101085.78
2022-09-11T02:04:19.375Z,101074.22
2022-09-11T02:06:49.356Z,101073.34
2022-09-11T02:09:19.867Z,101077.78
2022-09-11T02:11:47.326Z,101078.69
2022-09-11T02:14:42.078Z,101082.22
2022-09-11T02:17:20.967Z,101076.88
2022-09-11T02:19:49.167Z,101080.47
2022-09-11T02:22:15.764Z,101081.34
2022-09-11T02:24:42.450Z,101084.88
2022-09-11T02:27:13.204Z,101076.88
2022-09-11T02:29:41.355Z,101075.09
2022-09-11T02:32:10.828Z,101075.06
2022-09-11T02:34:39.492Z,101084.00
2022-09-11T02:37:20.195Z,101092.91
2022-09-11T02:39:56.962Z,101092.00
2022-09-11T02:42:38.477Z,101092.00
2022-09-11T02:45:29.416Z,101083.06
2022-09-11T02:48:06.588Z,101080.34
2022-09-11T02:50:58.752Z,101087.47
2022-09-11T02:53:53.707Z,101088.41
2022-09-11T02:56:35.974Z,101094.56
2022-09-11T02:59:08.409Z,101099.03
2022-09-11T03:01:49.072Z,101098.16
2022-09-11T03:04:18.171Z,101097.22
2022-09-11T03:06:48.506Z,101096.28
2022-09-11T03:09:15.821Z,101102.56
2022-09-11T03:11:45.437Z,101105.25
2022-09-11T03:14:12.478Z,101099.00
2022-09-11T03:16:40.930Z,101106.16
2022-09-11T03:19:09.882Z,101112.41
2022-09-11T03:21:38.863Z,101119.53
2022-09-11T03:24:06.412Z,101113.25
2022-09-11T03:26:35.810Z,101117.75
2022-09-11T03:29:03.352Z,101114.16
2022-09-11T03:31:30.896Z,101121.34
2022-09-11T03:33:58.543Z,101122.19
2022-09-11T03:36:25.732Z,101122.19
2022-09-11T03:38:55.155Z,101118.66
2022-09-11T03:41:21.800Z,101124.00
2022-09-11T03:43:48.461Z,101122.19
2022-09-11T03:46:15.193Z,101119.53
2022-09-11T03:48:41.779Z,101126.63
2022-09-11T03:51:08.481Z,101124.88
2022-09-11T03:53:35.487Z,101129.34
2022-09-11T03:56:05.004Z,101137.31
2022-09-11T03:58:37.526Z,101133.75
2022-09-11T04:01:22.818Z,101133.81
2022-09-11T04:03:50.760Z,101138.28
2022-09-11T04:06:24.737Z,101140.94
2022-09-11T04:08:51.373Z,101142.75
2022-09-11T04:11:19.302Z,101148.06
2022-09-11T04:13:46.206Z,101143.63
2022-09-11T04:16:17.162Z,101151.63
2022-09-11T04:18:47.122Z,101148.94
2022-09-11T04:21:27.873Z,101151.59
2022-09-11T04:24:00.164Z,101156.06
2022-09-11T04:26:31.338Z,101154.31
2022-09-11T04:29:07.755Z,101142.72
2022-09-11T04:31:36.253Z,101147.19
2022-09-11T04:34:03.381Z,101153.41
2022-09-11T04:36:33.885Z,101144.53
2022-09-11T04:39:04.100Z,101155.19
2022-09-11T04:41:31.700Z,101149.81
2022-09-11T04:44:05.219Z,101147.16
2022-09-11T04:46:34.375Z,101147.19
2022-09-11T04:49:04.655Z,101143.63
2022-09-11T04:51:34.727Z,101152.53
2022-09-11T04:54:02.427Z,101151.63
2022-09-11T04:56:40.319Z,101153.41
2022-09-11T04:59:16.194Z,101158.75
2022-09-11T05:01:52.159Z,101155.19
2022-09-11T05:04:22.898Z,101155.19
2022-09-11T05:06:52.171Z,101157.00
2022-09-11T05:09:19.487Z,101162.31
2022-09-11T05:11:47.940Z,101158.78
2022-09-11T05:14:15.595Z,101170.31
2022-09-11T05:16:45.392Z,101175.66
2022-09-11T05:19:14.102Z,101185.47
2022-09-11T05:21:43.942Z,101182.81
2022-09-11T05:24:10.741Z,101188.13
2022-09-11T05:26:38.376Z,101186.31
2022-09-11T05:29:17.217Z,101190.81
2022-09-11T05:32:06.170Z,101197.91
2022-09-11T05:34:32.768Z,101195.25
2022-09-11T05:36:59.775Z,101199.69
2022-09-11T05:39:29.359Z,101211.28
2022-09-11T05:41:56.798Z,101211.28
2022-09-11T05:44:30.940Z,101212.16
2022-09-11T05:46:58.460Z,101207.72
2022-09-11T05:49:25.652Z,101220.19
2022-09-11T05:51:52.466Z,101219.28
2022-09-11T05:54:19.160Z,101223.75
2022-09-11T05:56:46.064Z,101218.41
2022-09-11T05:59:21.903Z,101220.19
2022-09-11T06:01:50.430Z,101229.06
2022-09-11T06:04:31.417Z,101228.13
2022-09-11T06:06:59.657Z,101235.31
2022-09-11T06:09:27.792Z,101233.50
2022-09-11T06:11:54.481Z,101243.22
2022-09-11T06:14:21.491Z,101234.41
2022-09-11T06:16:49.517Z,101241.50
2022-09-11T06:19:16.895Z,101244.13
2022-09-11T06:21:44.976Z,101245.94
2022-09-11T06:24:24.481Z,101244.09
2022-09-11T06:26:51.527Z,101240.53
2022-09-11T06:29:19.510Z,101245.06
2022-09-11T06:31:51.293Z,101244.13
2022-09-11T06:34:21.496Z,101246.84
2022-09-11T06:36:51.897Z,101253.97
2022-09-11T06:39:23.178Z,101254.00
2022-09-11T06:41:50.940Z,101250.50
2022-09-11T06:44:20.708Z,101249.59
2022-09-11T06:46:47.810Z,101252.22
2022-09-11T06:49:14.556Z,101254.03
2022-09-11T06:52:07.596Z,101251.34
2022-09-11T06:54:34.392Z,101254.06
2022-09-11T06:57:06.069Z,101255.81
2022-09-11T06:59:33.080Z,101251.38
2022-09-11T07:02:00.779Z,101255.81
2022-09-11T07:04:28.635Z,101259.38
2022-09-11T07:06:55.281Z,101258.50
2022-09-11T07:09:23.534Z,101263.84
2022-09-11T07:11:54.236Z,101268.31
2022-09-11T07:14:21.660Z,101260.28
2022-09-11T07:16:55.282Z,101272.75
2022-09-11T07:19:24.933Z,101276.28
2022-09-11T07:21:51.999Z,101275.34
2022-09-11T07:24:19.727Z,101278.03
2022-09-11T07:26:46.675Z,101271.84
2022-09-11T07:29:19.310Z,101281.69
2022-09-11T07:31:47.817Z,101280.78
2022-09-11T07:34:15.702Z,101280.72
2022-09-11T07:36:43.204Z,101275.44
2022-09-11T07:39:10.135Z,101290.56
2022-09-11T07:41:57.045Z,101276.31
2022-09-11T07:44:28.013Z,101287.03
2022-09-11T07:46:55.866Z,101283.47
2022-09-11T07:49:23.529Z,101287.00
2022-09-11T07:51:50.152Z,101286.09
2022-09-11T07:54:23.157Z,101291.44
2022-09-11T07:56:50.083Z,101296.75
2022-09-11T07:59:18.088Z,101300.28
2022-09-11T08:01:46.866Z,101308.31
2022-09-11T08:04:15.899Z,101308.34
2022-09-11T08:06:43.152Z,101302.03
2022-09-11T08:09:16.393Z,101313.63
2022-09-11T08:11:49.224Z,101312.75
2022-09-11T08:14:17.920Z,101310.06
2022-09-11T08:16:48.279Z,101319.94
2022-09-11T08:19:18.340Z,101321.75
2022-09-11T08:21:48.220Z,101316.34
2022-09-11T08:24:20.278Z,101319.94
2022-09-11T08:26:49.383Z,101327.91
2022-09-11T08:29:18.288Z,101329.75
2022-09-11T08:31:45.512Z,101336.03
2022-09-11T08:34:13.406Z,101337.78
2022-09-11T08:36:40.071Z,101347.59
2022-09-11T08:39:09.040Z,101345.78
2022-09-11T08:41:48.971Z,101350.28
2022-09-11T08:44:31.058Z,101351.19
2022-09-11T08:47:19.176Z,101344.91
2022-09-11T08:50:12.524Z,101347.63
2022-09-11T08:52:39.689Z,101356.50
2022-09-11T08:55:14.144Z,101360.09
2022-09-11T08:58:20.989Z,101358.28
2022-09-11T09:01:09.385Z,101361.88
2022-09-11T09:04:06.601Z,101362.75
2022-09-11T09:06:51.947Z,101370.78
2022-09-11T09:10:00.918Z,101372.53
2022-09-11T09:13:09.990Z,101374.34
2022-09-11T09:15:55.945Z,101368.09
2022-09-11T09:18:55.449Z,101368.09
2022-09-11T09:21:53.035Z,101368.09
2022-09-11T09:24:20.335Z,101372.56
2022-09-11T09:26:56.109Z,101376.09
2022-09-11T09:29:28.633Z,101373.44
2022-09-11T09:32:04.761Z,101368.00
2022-09-11T09:34:34.972Z,101368.78
2022-09-11T09:37:05.859Z,101372.28
2022-09-11T09:39:36.157Z,101372.28
2022-09-11T09:42:24.801Z,101374.94
2022-09-11T09:44:57.629Z,101372.38
2022-09-11T09:47:24.879Z,101390.25
2022-09-11T09:49:52.573Z,101389.41
2022-09-11T09:52:25.895Z,101391.13
2022-09-11T09:54:57.358Z,101379.50
2022-09-11T09:57:27.481Z,101380.31
2022-09-11T10:00:12.474Z,101384.69
2022-09-11T10:02:55.605Z,101393.78
2022-09-11T10:05:27.915Z,101390.19
2022-09-11T10:07:57.473Z,101382.16
2022-09-11T10:10:28.437Z,101387.41
2022-09-11T10:13:17.762Z,101384.66
2022-09-11T10:15:44.847Z,101388.94
2022-09-11T10:18:23.742Z,101389.97
2022-09-11T10:20:54.696Z,101381.34
2022-09-11T10:23:26.822Z,101385.84
2022-09-11T10:25:54.325Z,101385.63
2022-09-11T10:28:31.175Z,101386.41
2022-09-11T10:31:02.444Z,101387.13
2022-09-11T10:33:41.731Z,101392.50
2022-09-11T10:36:09.927Z,101391.56
2022-09-11T10:38:42.976Z,101395.28
2022-09-11T10:41:13.026Z,101398.03
2022-09-11T10:43:47.686Z,101392.84
2022-09-11T10:46:40.842Z,101392.09
2022-09-11T10:49:22.116Z,101389.50
2022-09-11T10:52:02.156Z,101391.22
2022-09-11T10:54:44.678Z,101393.94
2022-09-11T10:57:38.778Z,101400.06
2022-09-11T11:00:21.226Z,101394.78
2022-09-11T11:02:51.471Z,101398.38
2022-09-11T11:05:31.394Z,101387.69
2022-09-11T11:08:01.125Z,101393.06
2022-09-11T11:10:47.151Z,101380.41
2022-09-11T11:13:47.018Z,101376.53
2022-09-11T11:16:45.381Z,101380.72
2022-09-11T11:19:28.464Z,101384.38
2022-09-11T11:22:06.738Z,101381.88
2022-09-11T11:24:42.937Z,101385.50
2022-09-11T11:27:47.164Z,101387.25
2022-09-11T11:30:46.453Z,101388.94
2022-09-11T11:33:32.163Z,101389.00
2022-09-11T11:36:29.092Z,101391.63
2022-09-11T11:39:01.071Z,101390.75
2022-09-11T11:41:38.493Z,101386.06
2022-09-11T11:44:10.766Z,101384.91
2022-09-11T11:46:44.737Z,101387.00
2022-09-11T11:49:17.326Z,101390.50
2022-09-11T11:52:00.855Z,101386.09
2022-09-11T11:54:38.243Z,101386.97
2022-09-11T11:57:22.465Z,101382.28
2022-09-11T12:00:05.286Z,101392.13
2022-09-11T12:02:41.392Z,101384.97
2022-09-11T12:05:30.228Z,101391.09
2022-09-11T12:07:57.199Z,101385.09
2022-09-11T12:10:33.375Z,101399.31
2022-09-11T12:13:03.186Z,101398.50
2022-09-11T12:15:32.261Z,101395.88
2022-09-11T12:18:07.816Z,101395.00
2022-09-11T12:20:40.915Z,101402.19
2022-09-11T12:23:35.022Z,101400.41
2022-09-11T12:26:22.950Z,101398.47
2022-09-11T12:29:13.129Z,101393.91
2022-09-11T12:31:49.032Z,101388.50
2022-09-11T12:34:23.760Z,101394.00
2022-09-11T12:37:03.763Z,101399.38
2022-09-11T12:39:34.269Z,101397.47
2022-09-11T12:42:25.388Z,101394.06
2022-09-11T12:44:52.196Z,101398.50
2022-09-11T12:47:29.290Z,101396.03
2022-09-11T12:50:04.932Z,101390.63
2022-09-11T12:52:37.682Z,101386.88
2022-09-11T12:55:20.632Z,101378.72
2022-09-11T12:57:47.399Z,101369.75
2022-09-11T13:00:34.713Z,101375.13
2022-09-11T13:03:02.404Z,101374.41
2022-09-11T13:05:38.218Z,101370.78
2022-09-11T13:08:09.383Z,101369.81
2022-09-11T13:10:38.591Z,101362.91
2022-09-11T13:13:34.587Z,101358.69
2022-09-11T13:16:37.133Z,101348.84
2022-09-11T13:19:10.294Z,101358.63
2022-09-11T13:21:41.915Z,101345.00
2022-09-11T13:24:30.319Z,101344.84
2022-09-11T13:27:16.249Z,101345.72
2022-09-11T13:29:43.554Z,101344.13
2022-09-11T13:32:14.319Z,101342.31
2022-09-11T13:34:46.087Z,101334.69
2022-09-11T13:37:15.630Z,101338.94
2022-09-11T13:39:43.545Z,101329.25
2022-09-11T13:42:18.337Z,101337.41
2022-09-11T13:44:52.289Z,101332.50
2022-09-11T13:47:27.831Z,101328.88
2022-09-11T13:50:00.223Z,101323.63
2022-09-11T13:52:28.827Z,101319.16
2022-09-11T13:54:59.337Z,101320.00
2022-09-11T13:57:32.560Z,101313.41
2022-09-11T14:00:03.529Z,101315.13
2022-09-11T14:02:45.773Z,101315.25
2022-09-11T14:05:36.873Z,101326.13
2022-09-11T14:08:26.491Z,101316.50
2022-09-11T14:11:18.091Z,101310.31
2022-09-11T14:13:45.035Z,101302.28
2022-09-11T14:16:15.052Z,101314.63
2022-09-11T14:18:48.282Z,101304.97
2022-09-11T14:21:17.413Z,101305.69
2022-09-11T14:23:48.273Z,101302.06
2022-09-11T14:26:25.811Z,101291.13
2022-09-11T14:29:28.148Z,101290.28
2022-09-11T14:32:24.316Z,101293.66
2022-09-11T14:34:52.378Z,101283.81
2022-09-11T14:37:45.397Z,101281.25
2022-09-11T14:40:17.232Z,101270.31
2022-09-11T14:42:50.149Z,101274.91
2022-09-11T14:45:27.864Z,101275.94
2022-09-11T14:48:24.590Z,101263.50
2022-09-11T14:51:03.328Z,101265.97
2022-09-11T14:53:55.898Z,101260.38
2022-09-11T14:56:30.451Z,101263.34
2022-09-11T14:59:48.584Z,101257.88
2022-09-11T15:01:59.492Z,101260.59
2022-09-11T15:04:26.265Z,101261.56
2022-09-11T15:06:55.537Z,101261.44
2022-09-11T15:09:26.463Z,101260.44
2022-09-11T15:12:01.498Z,101252.72
2022-09-11T15:14:55.133Z,101251.97
2022-09-11T15:17:25.512Z,101246.47
2022-09-11T15:20:25.238Z,101245.81
2022-09-11T15:23:17.742Z,101247.59
2022-09-11T15:26:01.305Z,101239.31
2022-09-11T15:28:29.503Z,101230.47
2022-09-11T15:30:58.806Z,101234.22
2022-09-11T15:33:27.153Z,101231.53
2022-09-11T15:35:56.233Z,101229.84
2022-09-11T15:38:24.127Z,101240.53
2022-09-11T15:40:56.858Z,101237.13
2022-09-11T15:44:10.687Z,101235.22
2022-09-11T15:46:57.130Z,101230.66
2022-09-11T15:49:24.725Z,101228.88
2022-09-11T15:51:54.078Z,101226.00
2022-09-11T15:54:26.697Z,101217.13
2022-09-11T15:56:53.356Z,101220.50
2022-09-11T16:02:38.705Z,101215.38
2022-09-11T16:05:09.228Z,101213.53
2022-09-11T16:08:25.333Z,101210.84
2022-09-11T16:11:06.075Z,101209.75
2022-09-11T16:13:32.868Z,101205.97
2022-09-11T16:16:06.193Z,101215.56
2022-09-11T16:18:38.484Z,101222.53
2022-09-11T16:21:11.287Z,101215.97
2022-09-11T16:23:39.240Z,101210.53
2022-09-11T16:27:19.792Z,101216.50
2022-09-11T16:32:39.590Z,101207.91
2022-09-11T16:35:08.733Z,101207.06
2022-09-11T16:37:40.571Z,101207.91
2022-09-11T16:40:09.435Z,101207.75
2022-09-11T16:42:47.387Z,101204.13
2022-09-11T16:45:14.283Z,101207.75
2022-09-11T16:47:41.546Z,101206.63
2022-09-11T16:50:17.157Z,101201.97
2022-09-11T16:52:47.413Z,101198.31
2022-09-11T16:55:15.418Z,101190.88
2022-09-11T16:57:44.276Z,101191.56
2022-09-11T17:00:11.873Z,101191.50
2022-09-11T17:02:38.757Z,101187.00
2022-09-11T17:05:15.448Z,101193.06
2022-09-11T17:07:58.807Z,101186.41
2022-09-11T17:10:38.746Z,101191.78
2022-09-11T17:13:12.871Z,101189.53
2022-09-11T17:15:42.448Z,101182.69
2022-09-11T17:19:00.179Z,101182.50
2022-09-11T17:21:36.294Z,101186.00
2022-09-11T17:24:33.835Z,101187.94
2022-09-11T17:27:08.125Z,101182.63
2022-09-11T17:29:44.600Z,101182.69
2022-09-11T17:32:31.145Z,101181.94
2022-09-11T17:35:00.936Z,101185.47
2022-09-11T17:37:27.980Z,101178.44
2022-09-11T17:39:58.647Z,101182.81
2022-09-11T17:42:27.392Z,101181.19
2022-09-11T17:45:08.377Z,101184.84
2022-09-11T17:47:37.637Z,101182.50
2022-09-11T17:50:05.079Z,101182.75
2022-09-11T17:52:36.966Z,101178.53
2022-09-11T17:55:18.204Z,101186.91
2022-09-11T17:57:46.904Z,101186.19
2022-09-11T18:00:41.129Z,101186.31
2022-09-11T18:03:25.179Z,101187.28
2022-09-11T18:06:59.875Z,101194.41
2022-09-11T18:09:26.697Z,101195.28
2022-09-11T18:11:57.560Z,101200.63
2022-09-11T18:14:27.531Z,101198.88
2022-09-11T18:16:59.576Z,101195.41
2022-09-11T18:19:37.163Z,101201.69
2022-09-11T18:22:03.943Z,101197.31
2022-09-11T18:24:31.557Z,101202.88
2022-09-11T18:27:11.916Z,101200.44
2022-09-11T18:30:19.875Z,101201.53
2022-09-11T18:32:50.017Z,101207.75
2022-09-11T18:35:18.773Z,101202.50
2022-09-11T18:37:45.527Z,101199.94
2022-09-11T18:40:12.561Z,101198.28
2022-09-11T18:42:40.903Z,101197.34
2022-09-11T18:45:08.717Z,101192.00
2022-09-11T18:47:35.477Z,101190.25
2022-09-11T18:50:05.258Z,101193.84
2022-09-11T18:52:32.074Z,101187.63
2022-09-11T18:55:00.247Z,101188.44
2022-09-11T18:57:27.769Z,101194.66
2022-09-11T18:59:54.557Z,101191.94
2022-09-11T19:02:21.229Z,101194.78
2022-09-11T19:04:48.204Z,101194.06
2022-09-11T19:07:15.820Z,101193.31
2022-09-11T19:09:45.898Z,101195.09
2022-09-11T19:12:12.798Z,101196.94
2022-09-11T19:14:39.784Z,101192.53
2022-09-11T19:17:06.400Z,101201.47
2022-09-11T19:19:33.076Z,101199.75
2022-09-11T19:22:00.406Z,101204.19
2022-09-11T19:24:31.805Z,101201.50
2022-09-11T19:27:00.165Z,101197.06
2022-09-11T19:29:27.583Z,101190.81
2022-09-11T19:31:54.690Z,101186.31
2022-09-11T19:34:24.405Z,101178.31
2022-09-11T19:36:53.824Z,101184.47
2022-09-11T19:39:21.818Z,101187.94
2022-09-11T19:41:49.040Z,101179.88
2022-09-11T19:44:17.869Z,101188.81
2022-09-11T19:46:46.418Z,101186.13
2022-09-11T19:49:13.293Z,101183.44
2022-09-11T19:51:42.254Z,101196.81
2022-09-11T19:54:11.092Z,101190.50
2022-09-11T19:56:38.509Z,101197.66
2022-09-11T19:59:06.118Z,101197.69
2022-09-11T20:01:35.899Z,101202.31
2022-09-11T20:04:02.945Z,101205.94
2022-09-11T20:06:32.306Z,101203.31
2022-09-11T20:09:27.353Z,101201.47
2022-09-11T20:11:49.491Z,101198.75
2022-09-11T20:14:16.780Z,101204.09
2022-09-11T20:16:44.223Z,101208.59
2022-09-11T20:19:11.491Z,101204.06
2022-09-11T20:21:38.363Z,101197.81
2022-09-11T20:24:07.221Z,101194.22
2022-09-11T20:26:34.114Z,101195.97
2022-09-11T20:29:03.762Z,101201.31
2022-09-11T20:31:42.524Z,101196.81
2022-09-11T20:34:13.416Z,101194.16
2022-09-11T20:36:40.027Z,101195.00
2022-09-11T20:39:07.273Z,101195.16
2022-09-11T20:41:35.878Z,101195.25
2022-09-11T20:44:03.888Z,101189.84
2022-09-11T20:46:31.180Z,101183.56
2022-09-11T20:48:58.129Z,101181.84
2022-09-11T20:51:24.922Z,101173.84
2022-09-11T20:53:51.480Z,101183.59
2022-09-11T20:56:24.089Z,101182.66
2022-09-11T20:58:51.718Z,101188.97
2022-09-11T21:01:23.090Z,101188.03
2022-09-11T21:03:52.361Z,101180.03
2022-09-11T21:06:26.322Z,101174.72
2022-09-11T21:08:58.929Z,101175.59
2022-09-11T21:11:26.989Z,101180.91
2022-09-11T21:13:54.146Z,101182.75
2022-09-11T21:16:21.170Z,101183.66
2022-09-11T21:18:56.201Z,101177.41
2022-09-11T21:21:24.019Z,101172.06
2022-09-11T21:23:54.369Z,101172.03
2022-09-11T21:26:21.247Z,101181.91
2022-09-11T21:28:48.542Z,101179.22
2022-09-11T21:31:15.288Z,101171.22
2022-09-11T21:33:41.966Z,101179.25
2022-09-11T21:36:08.616Z,101175.63
2022-09-11T21:38:36.622Z,101172.97
2022-09-11T21:41:10.251Z,101172.13
2022-09-11T21:43:37.532Z,101167.63
2022-09-11T21:46:06.038Z,101168.56
2022-09-11T21:48:35.883Z,101175.66
2022-09-11T21:51:08.260Z,101171.22
2022-09-11T21:53:35.131Z,101162.31
2022-09-11T21:56:05.374Z,101164.97
2022-09-11T21:58:32.557Z,101173.00
2022-09-11T22:01:06.174Z,101174.78
2022-09-11T22:03:32.997Z,101166.75
2022-09-11T22:05:59.555Z,101165.84
2022-09-11T22:08:26.180Z,101170.34
2022-09-11T22:10:52.855Z,101166.78
2022-09-11T22:13:19.919Z,101163.22
2022-09-11T22:15:48.765Z,101173.00
2022-09-11T22:18:16.688Z,101163.19
2022-09-11T22:20:43.697Z,101168.56
2022-09-11T22:23:15.972Z,101161.44
2022-09-11T22:25:43.661Z,101172.06
2022-09-11T22:28:10.485Z,101172.84
2022-09-11T22:30:41.230Z,101163.94
2022-09-11T22:33:08.082Z,101173.69
2022-09-11T22:35:35.127Z,101164.81
2022-09-11T22:38:02.105Z,101164.00
2022-09-11T22:40:28.673Z,101159.53
2022-09-11T22:42:55.587Z,101160.41
2022-09-11T22:45:22.364Z,101159.56
2022-09-11T22:47:48.897Z,101158.72
2022-09-11T22:50:15.759Z,101156.97
2022-09-11T22:52:42.635Z,101153.38
2022-09-11T22:55:09.564Z,101160.50
2022-09-11T22:57:38.964Z,101152.50
2022-09-11T23:00:08.992Z,101155.19
2022-09-11T23:02:36.351Z,101161.41
2022-09-11T23:05:23.092Z,101149.84
2022-09-11T23:07:50.588Z,101154.31
2022-09-11T23:10:20.155Z,101143.63
2022-09-11T23:12:46.869Z,101148.06
2022-09-11T23:15:13.746Z,101147.19
2022-09-11T23:17:40.307Z,101136.50
2022-09-11T23:20:09.307Z,101140.06
2022-09-11T23:22:36.449Z,101133.84
2022-09-11T23:25:03.194Z,101134.75
2022-09-11T23:27:30.039Z,101144.50
2022-09-11T23:29:57.059Z,101137.38
2022-09-11T23:32:24.301Z,101140.88
2022-09-11T23:34:50.913Z,101142.66
2022-09-11T23:37:17.722Z,101148.88
2022-09-11T23:39:45.118Z,101134.47
2022-09-11T23:42:12.775Z,101136.28
2022-09-11T23:44:39.310Z,101135.28
2022-09-11T23:47:05.970Z,101135.28
2022-09-11T23:49:36.174Z,101125.59
2022-09-11T23:52:04.180Z,101125.56
2022-09-11T23:54:33.883Z,101129.16
2022-09-11T23:57:00.721Z,101132.72
2022-09-11T23:59:27.444Z,101130.03
